createdAt,value
2022-11-06T00:01:20.227Z,30.70
2022-11-06T00:03:51.011Z,30.80
2022-11-06T00:06:38.571Z,30.00
2022-11-06T00:09:11.631Z,30.60
2022-11-06T00:11:44.307Z,30.30
2022-11-06T00:14:15.540Z,30.60
2022-11-06T00:16:51.099Z,29.50
2022-11-06T00:19:22.768Z,29.60
2022-11-06T00:21:56.083Z,29.20
2022-11-06T00:24:26.912Z,28.80
2022-11-06T00:26:57.572Z,28.90
2022-11-06T00:29:32.218Z,28.70
2022-11-06T00:32:03.033Z,28.60
2022-11-06T00:34:39.933Z,28.60
2022-11-06T00:37:13.257Z,28.30
2022-11-06T00:39:46.570Z,28.30
2022-11-06T00:42:17.651Z,28.50
2022-11-06T00:44:49.368Z,28.10
2022-11-06T00:47:20.093Z,28.20
2022-11-06T00:49:52.820Z,28.30
2022-11-06T00:52:26.226Z,28.50
2022-11-06T00:54:57.913Z,28.70
2022-11-06T00:57:28.627Z,28.90
2022-11-06T00:59:59.367Z,29.70
2022-11-06T01:02:31.592Z,29.60
2022-11-06T01:05:02.899Z,30.00
2022-11-06T01:07:38.837Z,30.10
2022-11-06T01:10:10.692Z,30.20
2022-11-06T01:12:41.410Z,30.50
2022-11-06T01:15:13.374Z,30.30
2022-11-06T01:17:44.068Z,30.60
2022-11-06T01:20:15.112Z,30.60
2022-11-06T01:22:50.119Z,30.40
2022-11-06T01:25:21.876Z,30.30
2022-11-06T01:27:52.605Z,31.50
2022-11-06T01:30:23.308Z,30.80
2022-11-06T01:32:54.114Z,30.80
2022-11-06T01:35:30.061Z,30.80
2022-11-06T01:38:04.058Z,31.40
2022-11-06T01:40:43.992Z,31.50
2022-11-06T01:43:22.138Z,32.10
2022-11-06T01:45:59.226Z,32.30
2022-11-06T01:48:35.804Z,31.70
2022-11-06T01:51:07.279Z,32.00
2022-11-06T01:53:43.571Z,32.30
2022-11-06T01:56:19.037Z,31.90
2022-11-06T01:58:56.330Z,32.30
2022-11-06T02:01:27.213Z,31.50
2022-11-06T02:04:08.434Z,32.20
2022-11-06T02:06:39.986Z,32.20
2022-11-06T02:09:13.902Z,32.20
2022-11-06T02:11:47.355Z,31.80
2022-11-06T02:14:27.221Z,31.50
2022-11-06T02:17:05.533Z,31.40
2022-11-06T02:20:01.535Z,31.20
2022-11-06T02:22:56.937Z,31.00
2022-11-06T02:25:46.214Z,31.30
2022-11-06T02:28:26.731Z,31.00
2022-11-06T02:31:06.106Z,30.80
2022-11-06T02:33:40.953Z,31.00
2022-11-06T02:36:17.086Z,30.80
2022-11-06T02:38:52.979Z,31.50
2022-11-06T02:41:28.343Z,32.00
2022-11-06T02:44:04.214Z,31.20
2022-11-06T02:46:38.137Z,31.60
2022-11-06T02:49:17.193Z,31.90
2022-11-06T02:51:53.026Z,32.70
2022-11-06T02:54:26.510Z,32.10
2022-11-06T02:57:00.680Z,32.00
2022-11-06T02:59:39.314Z,31.80
2022-11-06T03:02:16.631Z,32.10
2022-11-06T03:04:52.319Z,32.10
2022-11-06T03:07:29.849Z,32.00
2022-11-06T03:10:01.089Z,31.90
2022-11-06T03:12:40.821Z,32.00
2022-11-06T03:15:23.106Z,31.90
2022-11-06T03:18:02.098Z,32.20
2022-11-06T03:20:38.871Z,32.70
2022-11-06T03:23:15.109Z,32.00
2022-11-06T03:25:50.230Z,32.10
2022-11-06T03:28:29.369Z,32.10
2022-11-06T03:31:08.063Z,32.10
2022-11-06T03:33:46.070Z,32.10
2022-11-06T03:36:21.079Z,32.00
2022-11-06T03:38:55.310Z,32.10
2022-11-06T03:41:29.807Z,32.00
2022-11-06T03:44:04.064Z,32.10
2022-11-06T03:46:41.349Z,32.10
2022-11-06T03:49:15.464Z,32.00
2022-11-06T03:51:52.548Z,32.00
2022-11-06T03:54:26.415Z,32.00
2022-11-06T03:57:06.868Z,32.00
2022-11-06T03:59:44.741Z,32.50
2022-11-06T04:02:20.684Z,33.30
2022-11-06T04:04:56.474Z,33.10
2022-11-06T04:07:31.613Z,32.80
2022-11-06T04:10:18.163Z,32.10
2022-11-06T04:13:03.281Z,32.50
2022-11-06T04:15:37.530Z,32.90
2022-11-06T04:18:21.556Z,32.60
2022-11-06T04:21:16.609Z,33.40
2022-11-06T04:24:13.145Z,33.10
2022-11-06T04:26:52.964Z,33.60
2022-11-06T04:29:34.200Z,34.30
2022-11-06T04:32:14.740Z,34.20
2022-11-06T04:34:53.469Z,34.50
2022-11-06T04:37:28.536Z,34.20
2022-11-06T04:40:05.275Z,34.40
2022-11-06T04:42:43.321Z,34.20
2022-11-06T04:45:19.564Z,34.70
2022-11-06T04:47:52.343Z,34.40
2022-11-06T04:50:28.182Z,34.80
2022-11-06T04:53:00.670Z,34.60
2022-11-06T04:55:32.913Z,34.30
2022-11-06T04:58:06.454Z,34.40
2022-11-06T05:00:48.630Z,34.40
2022-11-06T05:03:21.510Z,34.30
2022-11-06T05:05:54.839Z,34.80
2022-11-06T05:08:26.623Z,34.70
2022-11-06T05:10:57.546Z,34.60
2022-11-06T05:13:28.401Z,34.00
2022-11-06T05:15:59.802Z,34.10
2022-11-06T05:18:30.982Z,34.00
2022-11-06T05:21:26.418Z,34.30
2022-11-06T05:23:57.401Z,34.50
2022-11-06T05:26:28.351Z,34.10
2022-11-06T05:29:00.221Z,34.20
2022-11-06T05:31:33.500Z,35.30
2022-11-06T05:34:04.248Z,34.80
2022-11-06T05:36:37.678Z,34.30
2022-11-06T05:39:08.474Z,34.00
2022-11-06T05:41:39.318Z,34.20
2022-11-06T05:44:10.037Z,35.00
2022-11-06T05:46:48.794Z,35.30
2022-11-06T05:49:21.318Z,35.10
2022-11-06T05:51:55.691Z,35.40
2022-11-06T05:54:26.739Z,35.30
2022-11-06T05:56:57.639Z,35.20
2022-11-06T05:59:31.498Z,34.80
2022-11-06T06:02:05.132Z,34.80
2022-11-06T06:04:37.056Z,35.70
2022-11-06T06:07:10.689Z,34.70
2022-11-06T06:09:41.407Z,35.20
2022-11-06T06:12:18.373Z,35.20
2022-11-06T06:14:50.517Z,35.50
2022-11-06T06:17:21.946Z,35.10
2022-11-06T06:19:54.539Z,35.30
2022-11-06T06:22:32.982Z,35.20
2022-11-06T06:25:12.198Z,35.70
2022-11-06T06:27:48.366Z,35.80
2022-11-06T06:30:19.542Z,35.90
2022-11-06T06:32:50.775Z,35.90
2022-11-06T06:35:22.021Z,36.40
2022-11-06T06:37:58.730Z,36.40
2022-11-06T06:40:29.855Z,36.10
2022-11-06T06:43:03.616Z,36.20
2022-11-06T06:45:34.336Z,36.40
2022-11-06T06:48:05.827Z,36.70
2022-11-06T06:50:36.598Z,36.40
2022-11-06T06:53:13.360Z,36.30
2022-11-06T06:55:44.474Z,36.40
2022-11-06T06:58:18.039Z,36.20
2022-11-06T07:00:49.785Z,36.10
2022-11-06T07:03:20.576Z,36.60
2022-11-06T07:05:51.259Z,36.40
2022-11-06T07:08:25.031Z,36.20
2022-11-06T07:10:55.877Z,36.00
2022-11-06T07:13:28.390Z,36.30
2022-11-06T07:16:02.285Z,36.80
2022-11-06T07:18:33.059Z,36.60
2022-11-06T07:21:08.093Z,35.20
2022-11-06T07:23:41.705Z,35.60
2022-11-06T07:26:15.544Z,35.40
2022-11-06T07:28:47.385Z,35.00
2022-11-06T07:31:21.139Z,35.20
2022-11-06T07:33:51.852Z,34.70
2022-11-06T07:36:23.084Z,34.70
2022-11-06T07:38:56.467Z,34.60
2022-11-06T07:41:27.654Z,33.90
2022-11-06T07:43:58.539Z,33.70
2022-11-06T07:46:30.683Z,34.00
2022-11-06T07:49:01.696Z,33.20
2022-11-06T07:51:33.344Z,33.50
2022-11-06T07:54:06.930Z,33.30
2022-11-06T07:56:38.477Z,32.00
2022-11-06T07:59:09.214Z,32.50
2022-11-06T08:01:40.069Z,32.60
2022-11-06T08:04:10.970Z,32.60
2022-11-06T08:06:41.806Z,31.30
2022-11-06T08:09:17.611Z,30.60
2022-11-06T08:11:49.134Z,29.90
2022-11-06T08:14:23.231Z,30.00
2022-11-06T08:16:58.408Z,30.90
2022-11-06T08:19:29.201Z,29.50
2022-11-06T08:21:59.938Z,29.60
2022-11-06T08:24:33.301Z,29.60
2022-11-06T08:27:05.050Z,29.60
2022-11-06T08:29:41.543Z,29.40
2022-11-06T08:32:13.995Z,29.00
2022-11-06T08:34:44.869Z,28.70
2022-11-06T08:37:15.600Z,28.80
2022-11-06T08:39:49.265Z,28.40
2022-11-06T08:42:20.022Z,29.00
2022-11-06T08:44:50.780Z,28.00
2022-11-06T08:47:21.757Z,28.20
2022-11-06T08:49:52.498Z,27.30
2022-11-06T08:52:23.188Z,27.40
2022-11-06T08:54:56.628Z,27.10
2022-11-06T08:57:29.802Z,27.20
2022-11-06T09:00:00.611Z,26.90
2022-11-06T09:02:32.056Z,26.40
2022-11-06T09:05:05.200Z,26.80
2022-11-06T09:07:35.873Z,26.50
2022-11-06T09:10:10.125Z,26.30
2022-11-06T09:12:40.902Z,25.90
2022-11-06T09:15:12.728Z,25.50
2022-11-06T09:17:46.751Z,25.70
2022-11-06T09:20:20.111Z,25.50
2022-11-06T09:22:54.462Z,25.10
2022-11-06T09:25:27.801Z,25.40
2022-11-06T09:28:01.040Z,25.00
2022-11-06T09:30:36.699Z,24.50
2022-11-06T09:33:13.506Z,24.10
2022-11-06T09:35:44.833Z,24.20
2022-11-06T09:38:16.545Z,23.50
2022-11-06T09:40:56.730Z,21.80
2022-11-06T09:44:04.068Z,22.40
2022-11-06T09:46:35.784Z,22.90
2022-11-06T09:49:14.365Z,21.50
2022-11-06T09:51:49.282Z,20.90
2022-11-06T09:54:31.604Z,21.50
2022-11-06T09:57:09.127Z,21.20
2022-11-06T09:59:42.478Z,21.40
2022-11-06T10:02:27.092Z,20.70
2022-11-06T10:05:05.236Z,19.90
2022-11-06T10:07:39.963Z,19.90
2022-11-06T10:10:18.288Z,19.30
2022-11-06T10:13:17.324Z,18.40
2022-11-06T10:15:55.605Z,18.70
2022-11-06T10:18:38.829Z,18.80
2022-11-06T10:21:13.836Z,18.20
2022-11-06T10:23:53.368Z,17.80
2022-11-06T10:26:34.048Z,17.20
2022-11-06T10:29:31.004Z,17.80
2022-11-06T10:32:19.295Z,16.80
2022-11-06T10:34:55.318Z,17.20
2022-11-06T10:37:30.953Z,17.10
2022-11-06T10:40:07.831Z,16.30
2022-11-06T10:42:42.992Z,16.10
2022-11-06T10:45:18.798Z,15.30
2022-11-06T10:47:54.852Z,15.20
2022-11-06T10:50:30.996Z,16.00
2022-11-06T10:53:09.253Z,15.00
2022-11-06T10:56:11.303Z,14.30
2022-11-06T10:58:42.276Z,14.30
2022-11-06T11:01:17.457Z,14.00
2022-11-06T11:03:52.130Z,12.90
2022-11-06T11:06:23.169Z,11.50
2022-11-06T11:08:58.340Z,10.20
2022-11-06T11:11:30.195Z,10.90
2022-11-06T11:14:17.289Z,11.40
2022-11-06T11:16:51.980Z,10.70
2022-11-06T11:19:29.059Z,10.20
2022-11-06T11:22:01.618Z,10.20
2022-11-06T11:24:32.839Z,9.80
2022-11-06T11:27:09.194Z,9.40
2022-11-06T11:29:48.640Z,8.20
2022-11-06T11:32:23.874Z,7.90
2022-11-06T11:35:01.597Z,7.90
2022-11-06T11:37:36.014Z,8.60
2022-11-06T11:40:23.633Z,8.90
2022-11-06T11:42:56.011Z,7.80
2022-11-06T11:45:26.889Z,8.50
2022-11-06T11:48:16.328Z,8.20
2022-11-06T11:50:47.389Z,8.60
2022-11-06T11:53:23.765Z,7.60
2022-11-06T11:55:56.840Z,7.70
2022-11-06T11:58:31.100Z,7.90
2022-11-06T12:01:04.804Z,7.80
2022-11-06T12:03:45.127Z,7.30
2022-11-06T12:06:21.271Z,7.80
2022-11-06T12:08:55.275Z,6.80
2022-11-06T12:11:29.662Z,7.60
2022-11-06T12:14:36.052Z,7.20
2022-11-06T12:17:21.282Z,7.60
2022-11-06T12:19:58.167Z,6.60
2022-11-06T12:22:33.746Z,6.70
2022-11-06T12:25:11.916Z,6.90
2022-11-06T12:27:46.762Z,6.50
2022-11-06T12:30:19.319Z,6.90
2022-11-06T12:32:59.132Z,7.00
2022-11-06T12:35:34.084Z,6.90
2022-11-06T12:38:16.798Z,5.10
2022-11-06T12:40:53.361Z,4.40
2022-11-06T12:43:30.862Z,5.20
2022-11-06T12:46:22.859Z,5.70
2022-11-06T12:49:16.037Z,4.50
2022-11-06T12:52:03.480Z,5.40
2022-11-06T12:54:49.061Z,5.20
2022-11-06T12:57:31.461Z,5.20
2022-11-06T13:00:14.351Z,4.50
2022-11-06T13:03:05.696Z,4.50
2022-11-06T13:05:43.540Z,5.40
2022-11-06T13:08:27.939Z,4.90
2022-11-06T13:11:09.557Z,4.30
2022-11-06T13:13:51.911Z,4.90
2022-11-06T13:16:31.867Z,4.30
2022-11-06T13:19:15.719Z,4.30
2022-11-06T13:22:10.656Z,4.20
2022-11-06T13:24:54.355Z,4.50
2022-11-06T13:27:36.311Z,4.10
2022-11-06T13:30:15.600Z,3.40
2022-11-06T13:32:53.865Z,3.70
2022-11-06T13:35:27.869Z,3.30
2022-11-06T13:37:59.746Z,2.90
2022-11-06T13:40:37.200Z,2.60
2022-11-06T13:43:14.981Z,3.10
2022-11-06T13:45:53.881Z,3.30
2022-11-06T13:48:37.828Z,2.60
2022-11-06T13:51:15.484Z,3.20
2022-11-06T13:53:58.459Z,3.90
2022-11-06T13:56:57.958Z,3.10
2022-11-06T13:59:53.946Z,1.60
2022-11-06T14:02:52.947Z,3.30
2022-11-06T14:05:50.869Z,2.80
2022-11-06T14:08:27.204Z,2.50
2022-11-06T14:11:06.168Z,3.20
2022-11-06T14:13:39.859Z,3.50
2022-11-06T14:16:30.920Z,3.30
2022-11-06T14:19:06.642Z,4.20
2022-11-06T14:21:53.495Z,2.80
2022-11-06T14:24:43.333Z,3.30
2022-11-06T14:27:16.698Z,2.80
2022-11-06T14:30:09.084Z,3.30
2022-11-06T14:32:45.289Z,3.40
2022-11-06T14:35:52.325Z,3.20
2022-11-06T14:38:46.924Z,1.00
2022-11-06T14:41:50.769Z,1.30
2022-11-06T14:44:47.951Z,1.00
2022-11-06T14:47:32.638Z,1.00
2022-11-06T14:50:07.581Z,1.00
2022-11-06T14:52:48.509Z,1.00
2022-11-06T14:55:31.204Z,1.00
2022-11-06T14:58:16.576Z,1.00
2022-11-06T15:00:55.981Z,1.00
2022-11-06T15:03:36.614Z,1.00
2022-11-06T15:06:31.429Z,1.00
2022-11-06T15:09:05.073Z,1.00
2022-11-06T15:11:55.185Z,1.00
2022-11-06T15:14:56.381Z,1.00
2022-11-06T15:17:38.459Z,1.00
2022-11-06T15:20:28.121Z,1.00
2022-11-06T15:23:13.555Z,1.00
2022-11-06T15:25:57.694Z,1.00
2022-11-06T15:28:31.890Z,1.00
2022-11-06T15:31:08.315Z,1.00
2022-11-06T15:33:44.648Z,1.00
2022-11-06T15:36:20.170Z,1.00
2022-11-06T15:38:50.982Z,1.00
2022-11-06T15:41:24.691Z,1.00
2022-11-06T15:43:58.173Z,1.00
2022-11-06T15:46:30.423Z,1.00
2022-11-06T15:49:20.067Z,1.00
2022-11-06T15:52:01.316Z,1.00
2022-11-06T15:54:40.124Z,1.00
2022-11-06T15:57:18.842Z,1.00
2022-11-06T15:59:49.748Z,1.00
2022-11-06T16:02:22.441Z,1.00
2022-11-06T16:04:54.279Z,1.00
2022-11-06T16:07:29.377Z,1.00
2022-11-06T16:10:00.298Z,1.00
2022-11-06T16:12:31.312Z,1.00
2022-11-06T16:15:02.078Z,1.20
2022-11-06T16:17:34.553Z,2.00
2022-11-06T16:20:15.112Z,2.70
2022-11-06T16:22:48.527Z,3.70
2022-11-06T16:25:23.243Z,4.30
2022-11-06T16:27:54.082Z,5.10
2022-11-06T16:30:26.036Z,4.40
2022-11-06T16:32:57.007Z,5.60
2022-11-06T16:35:42.440Z,6.60
2022-11-06T16:38:48.966Z,7.60
2022-11-06T16:41:35.565Z,7.90
2022-11-06T16:44:30.961Z,8.00
2022-11-06T16:47:20.375Z,10.00
2022-11-06T16:49:54.433Z,12.00
2022-11-06T16:52:29.960Z,11.60
2022-11-06T16:55:06.105Z,12.50
2022-11-06T16:57:45.881Z,13.50
2022-11-06T17:00:29.171Z,14.40
2022-11-06T17:03:02.376Z,13.80
2022-11-06T17:05:36.720Z,13.00
2022-11-06T17:08:09.612Z,12.30
2022-11-06T17:10:44.332Z,11.80
2022-11-06T17:13:20.256Z,12.30
2022-11-06T17:15:55.200Z,11.90
2022-11-06T17:18:28.322Z,11.80
2022-11-06T17:21:00.983Z,12.20
2022-11-06T17:23:33.459Z,11.50
2022-11-06T17:26:06.679Z,12.10
2022-11-06T17:28:40.060Z,11.30
2022-11-06T17:31:15.547Z,11.40
2022-11-06T17:33:47.252Z,12.30
2022-11-06T17:36:20.975Z,11.70
2022-11-06T17:38:52.067Z,12.00
2022-11-06T17:41:32.485Z,12.80
2022-11-06T17:44:07.583Z,12.80
2022-11-06T17:46:41.231Z,12.00
2022-11-06T17:49:17.517Z,11.90
2022-11-06T17:52:02.051Z,11.30
2022-11-06T17:54:37.090Z,10.80
2022-11-06T17:57:09.597Z,11.30
2022-11-06T17:59:43.236Z,11.40
2022-11-06T18:02:29.767Z,10.80
2022-11-06T18:05:08.875Z,10.10
2022-11-06T18:07:39.652Z,10.10
2022-11-06T18:10:11.600Z,9.90
2022-11-06T18:12:42.353Z,10.70
2022-11-06T18:15:16.592Z,10.50
2022-11-06T18:17:47.905Z,10.60
2022-11-06T18:20:19.051Z,10.30
2022-11-06T18:22:49.800Z,10.20
2022-11-06T18:25:20.621Z,10.50
2022-11-06T18:28:03.517Z,10.20
2022-11-06T18:30:37.879Z,10.50
2022-11-06T18:33:08.570Z,10.40
2022-11-06T18:35:39.278Z,9.60
2022-11-06T18:38:10.243Z,10.00
2022-11-06T18:40:41.193Z,9.50
2022-11-06T18:43:12.869Z,10.20
2022-11-06T18:45:46.308Z,9.10
2022-11-06T18:48:21.535Z,9.10
2022-11-06T18:50:55.110Z,9.30
2022-11-06T18:53:25.854Z,9.30
2022-11-06T18:55:56.890Z,9.00
2022-11-06T18:58:27.564Z,9.20
2022-11-06T19:01:02.191Z,9.00
2022-11-06T19:03:33.196Z,9.00
2022-11-06T19:06:04.054Z,8.60
2022-11-06T19:08:35.531Z,8.40
2022-11-06T19:11:08.492Z,9.40
2022-11-06T19:13:44.795Z,8.30
2022-11-06T19:16:22.101Z,8.40
2022-11-06T19:21:33.369Z,8.70
2022-11-06T19:24:06.345Z,8.40
2022-11-06T19:26:39.728Z,7.90
2022-11-06T19:29:11.815Z,8.10
2022-11-06T19:31:45.427Z,7.90
2022-11-06T19:34:16.744Z,8.00
2022-11-06T19:36:47.462Z,7.70
2022-11-06T19:39:18.141Z,7.80
2022-11-06T19:41:49.104Z,8.00
2022-11-06T19:44:20.380Z,7.60
2022-11-06T19:46:54.646Z,7.70
2022-11-06T19:49:25.614Z,8.00
2022-11-06T19:51:56.338Z,7.90
2022-11-06T19:54:48.149Z,8.10
2022-11-06T19:57:28.466Z,8.00
2022-11-06T20:00:00.913Z,8.20
2022-11-06T20:02:34.365Z,8.10
2022-11-06T20:05:06.521Z,8.20
2022-11-06T20:07:42.500Z,8.40
2022-11-06T20:10:14.832Z,8.50
2022-11-06T20:12:45.991Z,8.70
2022-11-06T20:15:22.832Z,9.00
2022-11-06T20:17:57.243Z,9.00
2022-11-06T20:20:33.233Z,9.30
2022-11-06T20:23:06.724Z,9.10
2022-11-06T20:25:37.488Z,9.60
2022-11-06T20:28:08.310Z,9.70
2022-11-06T20:30:42.480Z,10.20
2022-11-06T20:33:16.512Z,10.50
2022-11-06T20:35:47.811Z,10.50
2022-11-06T20:38:18.550Z,10.70
2022-11-06T20:40:49.616Z,10.80
2022-11-06T20:43:22.079Z,10.80
2022-11-06T20:45:55.658Z,11.00
2022-11-06T20:48:29.868Z,11.20
2022-11-06T20:51:01.339Z,10.90
2022-11-06T20:53:32.847Z,11.10
2022-11-06T20:56:06.001Z,10.90
2022-11-06T20:58:37.371Z,11.30
2022-11-06T21:01:12.362Z,11.80
2022-11-06T21:03:45.813Z,12.10
2022-11-06T21:06:17.306Z,12.10
2022-11-06T21:08:48.938Z,12.20
2022-11-06T21:11:21.394Z,12.50
2022-11-06T21:13:55.128Z,12.70
2022-11-06T21:16:33.912Z,12.90
2022-11-06T21:19:08.145Z,13.10
2022-11-06T21:21:39.837Z,13.30
2022-11-06T21:24:11.760Z,13.70
2022-11-06T21:26:42.676Z,14.00
2022-11-06T21:29:14.277Z,14.20
2022-11-06T21:31:49.143Z,14.30
2022-11-06T21:34:24.849Z,14.40
2022-11-06T21:37:01.236Z,14.50
2022-11-06T21:39:36.748Z,14.80
2022-11-06T21:42:08.176Z,15.90
2022-11-06T21:44:40.415Z,15.50
2022-11-06T21:47:13.644Z,15.40
2022-11-06T21:49:54.101Z,15.70
2022-11-06T21:52:46.380Z,16.30
2022-11-06T21:55:44.548Z,16.40
2022-11-06T21:58:15.452Z,16.90
2022-11-06T22:00:49.018Z,17.40
2022-11-06T22:03:19.933Z,17.40
2022-11-06T22:05:53.495Z,17.60
2022-11-06T22:08:29.550Z,17.50
2022-11-06T22:11:02.265Z,17.60
2022-11-06T22:13:32.968Z,17.60
2022-11-06T22:16:06.297Z,17.50
2022-11-06T22:18:40.139Z,17.80
2022-11-06T22:21:16.114Z,17.80
2022-11-06T22:23:47.296Z,18.10
2022-11-06T22:26:19.782Z,18.60
2022-11-06T22:28:50.579Z,18.60
2022-11-06T22:31:21.312Z,18.60
2022-11-06T22:33:55.137Z,18.80
2022-11-06T22:36:29.112Z,19.10
2022-11-06T22:39:01.196Z,19.60
2022-11-06T22:41:34.311Z,19.70
2022-11-06T22:44:05.378Z,19.60
2022-11-06T22:46:38.582Z,19.70
2022-11-06T22:49:09.729Z,19.80
2022-11-06T22:51:45.784Z,19.80
2022-11-06T22:54:19.643Z,20.50
2022-11-06T22:56:57.646Z,20.30
2022-11-06T22:59:28.763Z,20.30
2022-11-06T23:01:59.513Z,20.70
2022-11-06T23:04:31.536Z,20.90
2022-11-06T23:07:05.073Z,21.10
2022-11-06T23:09:35.823Z,21.20
2022-11-06T23:12:07.274Z,21.30
2022-11-06T23:14:38.025Z,21.30
2022-11-06T23:17:08.989Z,21.20
2022-11-06T23:19:43.945Z,21.20
2022-11-06T23:22:33.198Z,21.40
2022-11-06T23:25:04.096Z,21.30
2022-11-06T23:27:34.993Z,21.50
2022-11-06T23:30:07.029Z,21.90
2022-11-06T23:32:39.819Z,21.80
2022-11-06T23:35:14.180Z,21.70
2022-11-06T23:37:48.871Z,21.90
2022-11-06T23:40:19.668Z,21.90
2022-11-06T23:42:51.403Z,21.90
2022-11-06T23:45:35.861Z,22.00
2022-11-06T23:48:08.684Z,22.20
2022-11-06T23:50:46.914Z,22.30
2022-11-06T23:53:22.726Z,22.10
2022-11-06T23:55:53.499Z,22.30
2022-11-06T23:58:24.443Z,22.40
